Catàleg de serveis del Meteocat
Campanya meteocatpedra

Dades de l'estació automàtica Viladecans

?
?
Resum diari 22:30 TU
Dades diàries de l'estació meteorològica
Temperatura mitjana 10.1 °C
Temperatura màxima 16.1 °C 14:15 TU
Temperatura mínima 6.2 °C 22:10 TU
Humitat relativa mitjana 80%
Precipitació acumulada 0.5 mm
Ratxa màxima del vent (2 m) 13.7 km/h - 256º 15:32 TU
Irradiació solar global 5.0 MJ/m2

El tram horari està expressat en Temps Universal (TU). Cal sumar una hora en horari d'hivern i dues en horari d'estiu per passar a l'hora oficial.

Viladecans

Metadades estació meteorol´gica
Municipi Viladecans
Comarca Baix Llobregat
Altitud 3 m
Data alta 29.04.1993
Estat actual Operativa
Dades de període
Període
TU
TM
°C
TX
°C
TN
°C
HRM
%
PPT
mm
VVM (2 m)
km/h
DVM (2 m)
graus
VVX (2 m)
km/h
RS
W/m2
00:00 - 00:30 9.7 10.3 8.8 72 0.0 1.8 33 7.6 0
00:30 - 01:00 8.4 8.7 8.0 78 0.0 0.4 146 3.2 0
01:00 - 01:30 7.9 8.3 7.6 80 0.0 0.7 58 2.9 0
01:30 - 02:00 8.1 8.7 7.7 78 0.0 1.1 15 5.0 0
02:00 - 02:30 8.3 8.6 7.5 76 0.0 0.4 51 4.0 0
02:30 - 03:00 7.1 7.5 6.8 82 0.0 0.7 336 4.3 0
03:00 - 03:30 7.2 7.7 6.5 82 0.0 0.7 23 5.8 0
03:30 - 04:00 8.7 9.1 7.7 76 0.0 2.2 353 7.9 0
04:00 - 04:30 8.9 9.5 8.1 77 0.0 0.7 359 5.4 0
04:30 - 05:00 9.9 10.3 8.8 72 0.0 4.3 345 12.2 0
05:00 - 05:30 10.1 10.3 9.9 71 0.0 2.9 341 8.6 0
05:30 - 06:00 9.2 9.8 8.9 76 0.0 2.9 40 8.6 0
06:00 - 06:30 9.6 10.2 9.4 74 0.0 2.5 5 6.8 0
06:30 - 07:00 10.8 10.9 10.3 67 0.0 3.6 6 11.5 2
07:00 - 07:30 10.9 10.9 10.8 67 0.0 3.2 357 10.1 9
07:30 - 08:00 10.7 11.0 10.2 71 0.0 4.0 353 9.4 17
08:00 - 08:30 10.0 10.2 9.9 82 0.2 2.9 351 9.4 37
08:30 - 09:00 10.0 10.0 9.9 82 0.0 3.6 19 9.0 42
09:00 - 09:30 9.6 10.0 9.5 88 0.2 2.2 11 9.0 50
09:30 - 10:00 10.0 10.2 9.7 88 0.1 1.1 24 4.0 62
10:00 - 10:30 10.2 10.5 9.9 86 0.0 4.0 7 12.2 45
10:30 - 11:00 10.6 10.8 10.4 84 0.0 2.2 68 7.2 100
11:00 - 11:30 10.4 10.6 10.3 84 0.0 3.6 43 10.1 63
11:30 - 12:00 10.5 11.0 10.3 82 0.0 4.3 22 11.5 125
12:00 - 12:30 11.8 13.0 11.0 78 0.0 3.2 21 8.6 276
12:30 - 13:00 13.7 14.3 13.2 72 0.0 2.2 39 6.1 413
13:00 - 13:30 14.7 15.5 14.1 70 0.0 1.8 175 6.5 374
13:30 - 14:00 15.6 16.0 15.0 69 0.0 2.5 229 11.2 370
14:00 - 14:30 15.8 16.1 15.5 67 0.0 2.2 219 9.7 321
14:30 - 15:00 15.6 15.8 15.0 68 0.0 1.8 214 8.6 247
15:00 - 15:30 15.0 15.2 14.5 69 0.0 2.9 235 10.8 169
15:30 - 16:00 14.2 14.5 13.9 70 0.0 2.9 238 13.7 91
16:00 - 16:30 13.0 13.8 11.6 75 0.0 0.7 232 4.0 22
16:30 - 17:00 10.7 11.5 10.3 84 0.0 1.1 251 4.7 0
17:00 - 17:30 10.2 10.5 10.0 86 0.0 0.0 158 2.9 0
17:30 - 18:00 9.5 10.1 8.4 88 0.0 0.7 62 2.9 0
18:00 - 18:30 8.2 8.4 7.9 93 0.0 0.0 322 1.4 0
18:30 - 19:00 7.9 8.0 7.7 94 0.0 0.0 41 1.8 0
19:00 - 19:30 8.0 8.2 7.7 92 0.0 1.1 79 3.6 0
19:30 - 20:00 7.9 8.0 7.6 92 0.0 1.1 34 2.9 0
20:00 - 20:30 8.0 8.6 7.3 92 0.0 1.8 11 4.0 0
20:30 - 21:00 8.2 8.5 8.0 91 0.0 1.1 65 4.0 0
21:00 - 21:30 7.6 8.1 7.3 92 0.0 0.4 75 3.6 0
21:30 - 22:00 7.2 7.6 6.5 94 0.0 0.7 41 4.7 0
22:00 - 22:30 6.7 7.1 6.2 95 0.0 1.1 45 6.5 0
22:30 - 23:00 6.6 6.7 6.5 94 0.0 0.7 71 3.6 0

Les dades en taronja només han passat un control de qualitat automàtic. Resta pendent la seva validació definitiva.